Time;durP1;ratioP1;P1;durP2;ratioP2;P2;SDS_P1;SDS_P2;PMS_P1;PMS_P2;Temp;Humidity;BMP_temperature;BMP_pressure;BME280_temperature;BME280_humidity;BME280_pressure;Samples;Min_cycle;Max_cycle;Signal;HPM_P1;HPM_P2
2023/08/25 19:16:09;;;;;;;44.70;18.70;;;;;;;17.93;100.00;101161.02;105034;1267;60765;-52
2023/08/25 19:18:37;;;;;;;50.90;21.10;;;;;;;17.88;100.00;101165.95;105003;1270;73848;-54
2023/08/25 19:21:04;;;;;;;42.60;19.90;;;;;;;17.83;100.00;101161.04;104980;1267;64534;-53
2023/08/25 19:23:32;;;;;;;58.40;23.20;;;;;;;17.81;100.00;101159.90;104924;1267;72639;-55
2023/08/25 19:26:07;;;;;;;37.60;21.50;;;;;;;17.77;100.00;101161.94;104823;1270;61881;-53
2023/08/25 19:28:34;;;;;;;43.80;20.50;;;;;;;17.72;100.00;101164.58;104893;1265;60503;-53
2023/08/25 19:31:02;;;;;;;46.50;25.40;;;;;;;17.67;100.00;101168.08;104965;1269;74184;-52
2023/08/25 19:33:32;;;;;;;46.40;24.10;;;;;;;17.62;100.00;101167.23;104845;1267;65594;-57
2023/08/25 19:35:59;;;;;;;35.00;19.50;;;;;;;17.56;100.00;101168.65;105086;1266;72470;-54
2023/08/25 19:38:26;;;;;;;40.40;20.60;;;;;;;17.51;100.00;101163.59;104883;1266;61831;-52
2023/08/25 19:40:53;;;;;;;36.60;20.60;;;;;;;17.47;100.00;101159.20;104868;1270;60436;-53
2023/08/25 19:43:20;;;;;;;34.00;18.00;;;;;;;17.43;100.00;101154.46;105248;1267;73504;-54
2023/08/25 19:45:49;;;;;;;32.80;16.70;;;;;;;17.40;100.00;101157.03;105167;1266;64690;-52
2023/08/25 19:48:16;;;;;;;35.50;16.70;;;;;;;17.36;100.00;101151.76;105532;1261;72636;-52
2023/08/25 19:50:43;;;;;;;37.30;18.00;;;;;;;17.34;100.00;101145.70;105519;1263;63158;-51
2023/08/25 19:53:10;;;;;;;33.20;15.10;;;;;;;17.33;100.00;101140.17;105508;1257;60458;-51
2023/08/25 19:55:40;;;;;;;33.80;15.40;;;;;;;17.31;100.00;101131.52;105488;1260;73672;-53
2023/08/25 19:58:08;;;;;;;35.60;15.90;;;;;;;17.29;100.00;101126.70;105494;1264;64649;-52
2023/08/25 20:00:35;;;;;;;30.70;17.60;;;;;;;17.28;100.00;101117.52;105522;1262;72605;-51
2023/08/25 20:03:04;;;;;;;29.70;16.80;;;;;;;17.30;100.00;101111.34;105584;1262;62745;-52
2023/08/25 20:05:37;;;;;;;29.40;18.20;;;;;;;17.30;100.00;101100.17;105574;1257;60442;-53
2023/08/25 20:08:05;;;;;;;29.60;15.30;;;;;;;17.29;100.00;101090.27;105531;1261;73915;-51
2023/08/25 20:10:33;;;;;;;29.00;15.40;;;;;;;17.28;100.00;101085.06;105593;1260;63686;-51
2023/08/25 20:13:03;;;;;;;28.10;14.00;;;;;;;17.25;100.00;101078.73;105515;1260;72417;-53
2023/08/25 20:15:32;;;;;;;28.20;14.60;;;;;;;17.20;100.00;101073.67;105493;1257;60760;-52
2023/08/25 20:17:59;;;;;;;33.50;14.30;;;;;;;17.14;100.00;101070.94;105461;1260;60580;-54
2023/08/25 20:20:26;;;;;;;30.80;17.90;;;;;;;17.07;100.00;101067.51;105481;1262;73825;-55
2023/08/25 20:22:53;;;;;;;44.00;24.70;;;;;;;17.02;100.00;101069.95;105562;1261;64807;-54
2023/08/25 20:25:21;;;;;;;53.10;32.10;;;;;;;16.96;100.00;101070.48;105548;1257;73120;-55
2023/08/25 20:27:47;;;;;;;100.90;59.30;;;;;;;16.92;100.00;101068.54;105544;1260;62043;-53
2023/08/25 20:30:14;;;;;;;80.70;47.20;;;;;;;16.87;100.00;101064.00;105564;1257;60537;-54
2023/08/25 20:32:41;;;;;;;67.10;41.30;;;;;;;16.83;100.00;101053.33;105456;1260;73881;-55
2023/08/25 20:35:08;;;;;;;45.50;27.40;;;;;;;16.80;100.00;101050.30;105525;1261;64592;-53
2023/08/25 20:37:35;;;;;;;35.70;20.40;;;;;;;16.76;100.00;101049.71;105483;1259;72596;-53
2023/08/25 20:40:03;;;;;;;28.20;16.50;;;;;;;16.72;100.00;101050.21;105539;1260;61955;-54
2023/08/25 20:42:30;;;;;;;38.90;17.80;;;;;;;16.68;100.00;101054.55;105554;1257;60676;-52
2023/08/25 20:44:57;;;;;;;20.60;12.60;;;;;;;16.61;100.00;101055.98;105520;1261;73886;-52
2023/08/25 20:47:24;;;;;;;27.80;13.90;;;;;;;16.56;100.00;101060.20;105521;1260;64761;-52
2023/08/25 20:49:51;;;;;;;19.20;11.60;;;;;;;16.50;100.00;101057.59;105627;1254;72682;-53
2023/08/25 20:52:17;;;;;;;25.10;10.80;;;;;;;16.46;100.00;101055.63;105610;1256;61954;-52
2023/08/25 20:54:44;;;;;;;18.80;10.40;;;;;;;16.42;100.00;101055.08;105627;1254;60459;-53
2023/08/25 20:57:13;;;;;;;23.10;11.00;;;;;;;16.39;100.00;101052.73;105613;1254;73822;-57
2023/08/25 20:59:40;;;;;;;21.60;11.50;;;;;;;16.35;100.00;101047.44;105617;1253;64616;-57
2023/08/25 21:02:07;;;;;;;24.30;11.20;;;;;;;16.34;100.00;101038.59;105541;1257;72653;-54
2023/08/25 21:04:37;;;;;;;17.20;9.20;;;;;;;16.36;100.00;101028.10;105695;1257;61988;-55
2023/08/25 21:07:05;;;;;;;19.50;8.30;;;;;;;16.39;100.00;101024.16;105676;1254;60447;-53
2023/08/25 21:09:32;;;;;;;14.70;8.70;;;;;;;16.40;100.00;101016.83;105606;1254;73836;-53
2023/08/25 21:11:59;;;;;;;15.80;8.70;;;;;;;16.38;100.00;101015.98;105545;1256;64643;-52
2023/08/25 21:14:26;;;;;;;18.90;7.70;;;;;;;16.35;100.00;101018.54;106240;1254;72726;-53
2023/08/25 21:16:53;;;;;;;16.70;7.20;;;;;;;16.34;100.00;101019.63;105667;1258;61983;-54
2023/08/25 21:19:20;;;;;;;13.80;7.50;;;;;;;16.33;100.00;101016.17;105580;1254;60454;-53
2023/08/25 21:21:47;;;;;;;13.00;6.70;;;;;;;16.30;100.00;101011.39;105655;1256;73810;-55
2023/08/25 21:24:13;;;;;;;15.50;6.40;;;;;;;16.26;100.00;101011.53;105670;1255;62218;-52
2023/08/25 21:26:41;;;;;;;15.20;7.90;;;;;;;16.22;100.00;101004.01;105628;1255;72372;-52
2023/08/25 21:29:09;;;;;;;19.80;8.00;;;;;;;16.20;100.00;101007.21;105638;1259;61802;-54
2023/08/25 21:31:36;;;;;;;18.20;7.50;;;;;;;16.20;100.00;101009.63;105651;1254;60475;-54
2023/08/25 21:34:07;;;;;;;17.50;9.00;;;;;;;16.20;100.00;101002.50;105609;1258;73811;-53
2023/08/25 21:36:34;;;;;;;25.60;7.60;;;;;;;16.21;100.00;101003.16;105668;1259;64557;-54
2023/08/25 21:39:01;;;;;;;12.10;7.50;;;;;;;16.21;100.00;101001.77;105634;1254;72580;-52
2023/08/25 21:41:29;;;;;;;13.20;7.50;;;;;;;16.20;100.00;101001.29;105643;1257;61934;-53
2023/08/25 21:43:59;;;;;;;16.00;7.30;;;;;;;16.19;100.00;100998.54;105676;1254;60534;-53
2023/08/25 21:46:28;;;;;;;18.50;7.40;;;;;;;16.17;100.00;100994.95;105596;1255;73837;-53
2023/08/25 21:48:56;;;;;;;15.20;6.50;;;;;;;16.13;100.00;100992.80;105682;1259;64670;-52
2023/08/25 21:51:23;;;;;;;16.30;7.00;;;;;;;16.09;100.00;100992.76;105696;1254;71570;-53
2023/08/25 21:53:53;;;;;;;13.40;5.70;;;;;;;16.05;100.00;100988.38;105651;1259;61892;-53
2023/08/25 21:56:21;;;;;;;9.50;5.80;;;;;;;16.04;100.00;100992.73;105680;1254;60537;-53
2023/08/25 21:58:48;;;;;;;15.20;6.70;;;;;;;16.07;100.00;100995.63;105640;1259;73813;-53
2023/08/25 22:01:17;;;;;;;15.00;5.50;;;;;;;16.06;100.00;100994.60;105685;1259;64613;-52
2023/08/25 22:03:44;;;;;;;16.50;6.30;;;;;;;16.06;100.00;100997.92;105649;1254;72633;-53
2023/08/25 22:06:12;;;;;;;10.50;6.30;;;;;;;16.02;100.00;100992.62;105652;1258;62106;-52
2023/08/25 22:08:40;;;;;;;12.10;5.50;;;;;;;15.99;100.00;100988.20;105676;1254;60518;-53
2023/08/25 22:11:15;;;;;;;10.20;5.80;;;;;;;15.99;100.00;100985.28;105666;1255;73721;-52
2023/08/25 22:13:43;;;;;;;10.00;5.00;;;;;;;16.00;100.00;100985.75;105690;1259;63649;-54
2023/08/25 22:16:10;;;;;;;11.40;4.90;;;;;;;15.99;100.00;100990.32;105637;1259;71459;-53
2023/08/25 22:18:37;;;;;;;12.50;5.90;;;;;;;16.00;100.00;100985.42;105648;1256;60605;-53
2023/08/25 22:21:05;;;;;;;7.90;5.40;;;;;;;16.00;100.00;100987.31;105505;1254;248525;-55
2023/08/25 22:25:47;;;;;;;16.70;6.60;;;;;;;16.03;100.00;101006.01;102685;1294;600588;-52
2023/08/25 22:28:15;;;;;;;9.50;6.60;;;;;;;16.03;100.00;100993.48;104888;1268;60453;-51
2023/08/25 22:30:43;;;;;;;9.70;5.60;;;;;;;16.04;100.00;100988.76;104832;1266;59314;-52
2023/08/25 22:33:11;;;;;;;15.70;5.70;;;;;;;16.03;100.00;100983.38;105024;1269;72237;-51
2023/08/25 22:35:42;;;;;;;17.50;5.90;;;;;;;15.99;100.00;100974.97;104834;1271;63323;-53
2023/08/25 22:38:10;;;;;;;10.50;5.20;;;;;;;15.95;100.00;100976.52;104849;1270;71627;-52
2023/08/25 22:40:38;;;;;;;8.60;5.20;;;;;;;15.91;100.00;100977.14;105147;1262;415144;-51
2023/08/25 22:43:05;;;;;;;14.70;6.00;;;;;;;15.89;100.00;100981.39;105463;1262;59192;-52
2023/08/25 22:45:33;;;;;;;15.40;5.60;;;;;;;15.87;100.00;100984.21;105486;1256;72226;-52
2023/08/25 22:48:01;;;;;;;10.70;5.90;;;;;;;15.87;100.00;100980.57;105477;1261;63135;-53
2023/08/25 22:50:29;;;;;;;8.00;6.10;;;;;;;15.91;100.00;100972.64;105675;1258;72674;-53
2023/08/25 22:52:56;;;;;;;9.40;5.60;;;;;;;15.95;100.00;100968.52;105722;1259;61674;-53
2023/08/25 22:55:24;;;;;;;12.90;5.40;;;;;;;15.96;100.00;100962.56;105718;1255;59537;-53
2023/08/25 22:57:52;;;;;;;20.10;5.40;;;;;;;15.96;100.00;100956.66;105696;1252;71753;-54
2023/08/25 23:00:20;;;;;;;13.40;5.60;;;;;;;15.97;100.00;100949.80;105748;1257;63132;-56
2023/08/25 23:02:47;;;;;;;9.40;5.30;;;;;;;15.99;100.00;100942.61;105721;1259;71417;-55
2023/08/25 23:05:16;;;;;;;10.60;5.50;;;;;;;15.99;100.00;100936.70;105707;1258;60383;-53
2023/08/25 23:07:43;;;;;;;11.60;5.40;;;;;;;16.02;100.00;100931.02;105806;1257;60012;-54
2023/08/25 23:10:11;;;;;;;10.90;5.20;;;;;;;16.03;100.00;100929.24;105857;1257;72082;-54
2023/08/25 23:12:39;;;;;;;10.80;4.90;;;;;;;15.99;100.00;100933.05;105876;1264;63160;-55
2023/08/25 23:15:08;;;;;;;11.00;5.30;;;;;;;15.94;100.00;100934.77;105647;1255;70935;-54
2023/08/25 23:17:35;;;;;;;8.90;6.20;;;;;;;15.89;100.00;100935.45;105792;1253;61604;-56
2023/08/25 23:20:04;;;;;;;14.70;5.90;;;;;;;15.84;100.00;100937.67;105846;1259;59641;-52
2023/08/25 23:22:31;;;;;;;8.40;4.90;;;;;;;15.79;100.00;100938.70;105989;1254;72286;-51
2023/08/25 23:24:59;;;;;;;7.80;4.80;;;;;;;15.74;100.00;100934.15;105822;1254;63532;-53
2023/08/25 23:27:27;;;;;;;9.40;5.40;;;;;;;15.71;100.00;100936.36;105693;1260;71405;-54
2023/08/25 23:29:55;;;;;;;12.80;5.80;;;;;;;15.70;100.00;100939.37;105723;1260;60430;-54
2023/08/25 23:32:23;;;;;;;9.10;5.90;;;;;;;15.68;100.00;100938.05;105662;1254;59525;-52
2023/08/25 23:34:50;;;;;;;8.80;5.50;;;;;;;15.66;100.00;100944.17;105638;1258;71971;-52
2023/08/25 23:37:18;;;;;;;6.50;5.20;;;;;;;15.63;100.00;100942.17;105668;1255;64492;-51
2023/08/25 23:39:46;;;;;;;9.90;6.10;;;;;;;15.61;100.00;100942.92;105727;1258;71449;-53
2023/08/25 23:42:13;;;;;;;9.30;5.40;;;;;;;15.60;100.00;100938.09;105702;1259;60430;-50
2023/08/25 23:44:41;;;;;;;8.20;5.70;;;;;;;15.58;100.00;100929.81;105704;1259;59620;-52
2023/08/25 23:47:12;;;;;;;8.10;5.40;;;;;;;15.56;100.00;100930.04;105709;1259;73043;-53
2023/08/25 23:49:41;;;;;;;8.40;5.30;;;;;;;15.56;100.00;100923.98;105739;1260;63503;-52
2023/08/25 23:52:08;;;;;;;8.20;5.00;;;;;;;15.55;100.00;100921.55;105738;1259;71567;-51
2023/08/25 23:54:36;;;;;;;7.90;5.10;;;;;;;15.50;100.00;100922.73;105681;1255;60717;-51
2023/08/25 23:57:05;;;;;;;8.10;5.20;;;;;;;15.48;100.00;100924.05;105651;1253;59536;-52
2023/08/25 23:59:33;;;;;;;7.10;4.90;;;;;;;15.46;100.00;100925.81;105770;1254;71499;-53
